Time;durP1;ratioP1;P1;durP2;ratioP2;P2;SDS_P1;SDS_P2;PMS_P1;PMS_P2;Temp;Humidity;BMP_temperature;BMP_pressure;BME280_temperature;BME280_humidity;BME280_pressure;Samples;Min_cycle;Max_cycle;Signal;HPM_P1;HPM_P2
2023/09/25 00:02:09;;;;;;;6.68;4.13;;;;;;;12.42;95.44;101466.16;4971164;28;20082;-80
2023/09/25 00:04:36;;;;;;;5.97;4.32;;;;;;;12.45;95.66;101477.19;4977814;28;20160;-79
2023/09/25 00:09:30;;;;;;;6.13;3.80;;;;;;;12.44;96.01;101483.41;4988129;23;20069;-87
2023/09/25 00:11:56;;;;;;;7.13;4.10;;;;;;;12.41;96.14;101482.88;4996274;28;20096;-88
2023/09/25 00:14:23;;;;;;;8.18;4.15;;;;;;;12.36;96.48;101474.63;4996345;28;20129;-89
2023/09/25 00:16:50;;;;;;;5.80;3.88;;;;;;;12.32;96.79;101489.00;4995644;28;20050;-87
2023/09/25 00:19:18;;;;;;;5.38;3.60;;;;;;;12.30;96.94;101489.16;4996450;28;20119;-88
2023/09/25 00:21:45;;;;;;;8.77;4.30;;;;;;;12.26;97.15;101475.53;5019532;23;20046;-81
2023/09/25 00:24:12;;;;;;;5.90;4.10;;;;;;;12.32;96.96;101492.44;4991280;28;20051;-79
2023/09/25 00:26:38;;;;;;;4.88;3.60;;;;;;;12.30;96.96;101482.09;4994825;28;20054;-79
2023/09/25 00:29:05;;;;;;;8.18;3.97;;;;;;;12.36;96.88;101493.81;4992855;28;20058;-80
2023/09/25 00:31:32;;;;;;;5.97;4.28;;;;;;;12.39;96.78;101495.31;4994769;28;20085;-80
2023/09/25 00:33:58;;;;;;;6.65;4.10;;;;;;;12.40;96.58;101483.84;4981081;28;20051;-80
2023/09/25 00:38:56;;;;;;;11.05;4.07;;;;;;;12.39;96.47;101490.06;4980948;28;20105;-81
2023/09/25 00:41:22;;;;;;;4.50;3.60;;;;;;;12.37;96.58;101486.75;4983228;28;20055;-81
2023/09/25 00:43:49;;;;;;;6.53;4.10;;;;;;;12.38;96.17;101489.25;4981257;28;20532;-80
2023/09/25 00:46:15;;;;;;;6.03;3.95;;;;;;;12.38;96.24;101493.66;4977033;28;20050;-78
2023/09/25 00:48:42;;;;;;;7.53;4.10;;;;;;;12.37;96.29;101487.59;4977533;28;20129;-81
2023/09/25 00:51:10;;;;;;;5.45;4.03;;;;;;;12.38;96.15;101488.41;4984021;28;20050;-80
2023/09/25 00:53:40;;;;;;;5.15;3.88;;;;;;;12.33;96.32;101486.22;4982939;28;20141;-81
2023/09/25 00:56:09;;;;;;;4.70;3.80;;;;;;;12.33;96.51;101491.47;4984577;28;20201;-79
2023/09/25 00:58:36;;;;;;;5.97;4.18;;;;;;;12.23;96.66;101490.72;4983075;28;20053;-82
2023/09/25 01:01:03;;;;;;;6.95;4.07;;;;;;;12.18;97.09;101504.28;4979346;28;20596;-80
2023/09/25 01:03:31;;;;;;;5.35;4.00;;;;;;;12.19;97.03;101500.69;4989447;28;20119;-81
2023/09/25 01:05:59;;;;;;;6.15;4.15;;;;;;;12.08;97.57;101495.63;4987264;28;20055;-80
2023/09/25 01:08:25;;;;;;;6.78;4.30;;;;;;;12.09;97.35;101506.94;4981499;28;20450;-79
2023/09/25 01:10:52;;;;;;;5.47;4.25;;;;;;;12.03;97.79;101505.72;4981993;28;20588;-79
2023/09/25 01:13:20;;;;;;;7.00;4.13;;;;;;;12.02;97.88;101509.31;4981326;28;20075;-80
2023/09/25 01:15:47;;;;;;;7.55;4.10;;;;;;;12.01;97.94;101507.66;4980254;28;20430;-79
2023/09/25 01:18:13;;;;;;;5.25;3.83;;;;;;;11.96;98.24;101515.97;4977708;28;20130;-80
2023/09/25 01:20:40;;;;;;;6.18;3.95;;;;;;;11.94;98.48;101509.19;4983894;28;20296;-82
2023/09/25 01:23:08;;;;;;;5.35;3.97;;;;;;;11.94;98.39;101502.16;4983271;28;20046;-80
2023/09/25 01:25:34;;;;;;;6.75;3.85;;;;;;;11.93;98.38;101500.50;4982838;28;20495;-81
2023/09/25 01:28:01;;;;;;;7.32;4.13;;;;;;;11.93;98.50;101489.19;4982893;28;20057;-80
2023/09/25 01:30:29;;;;;;;5.78;4.15;;;;;;;11.91;98.45;101484.09;4980858;28;20138;-80
2023/09/25 01:32:56;;;;;;;7.57;3.95;;;;;;;11.94;98.63;101485.59;4992462;28;20204;-82
2023/09/25 01:35:26;;;;;;;6.60;3.97;;;;;;;11.90;98.48;101477.19;4994932;28;20047;-84
2023/09/25 01:37:57;;;;;;;6.05;3.92;;;;;;;11.89;98.56;101483.41;4990386;28;20042;-83
2023/09/25 01:40:25;;;;;;;6.53;4.20;;;;;;;11.87;98.61;101489.75;4988259;28;20061;-81
2023/09/25 01:42:52;;;;;;;5.80;4.60;;;;;;;11.89;99.05;101486.03;4984075;28;20085;-79
2023/09/25 01:45:20;;;;;;;5.90;4.07;;;;;;;11.73;98.99;101480.53;4984434;28;20039;-83
2023/09/25 01:47:50;;;;;;;5.10;3.95;;;;;;;11.72;99.66;101496.41;4983915;28;20051;-80
2023/09/25 01:50:17;;;;;;;7.03;4.00;;;;;;;11.67;99.86;101503.88;4983157;28;20338;-83
2023/09/25 01:52:44;;;;;;;6.18;4.40;;;;;;;11.62;100.00;101504.31;4983215;28;20472;-80
2023/09/25 01:55:11;;;;;;;6.55;4.07;;;;;;;11.62;100.00;101513.00;4975857;28;20082;-79
2023/09/25 01:57:39;;;;;;;7.45;4.10;;;;;;;11.57;100.00;101509.97;4978045;28;20173;-79
2023/09/25 02:00:10;;;;;;;9.02;4.35;;;;;;;11.51;100.00;101515.75;4975288;28;20066;-80
2023/09/25 02:02:37;;;;;;;7.15;4.30;;;;;;;11.46;100.00;101517.97;4975855;28;20121;-80
2023/09/25 02:05:05;;;;;;;5.57;4.10;;;;;;;11.39;100.00;101519.50;4975271;28;20074;-80
2023/09/25 02:07:32;;;;;;;4.53;4.00;;;;;;;11.34;100.00;101521.75;4974150;28;20500;-77
2023/09/25 02:09:58;;;;;;;9.20;4.13;;;;;;;11.35;100.00;101520.75;4974005;28;20046;-78
2023/09/25 02:12:25;;;;;;;6.45;4.32;;;;;;;11.30;100.00;101522.97;4974768;28;20049;-83
2023/09/25 02:14:57;;;;;;;5.82;4.13;;;;;;;11.22;100.00;101521.06;4976323;28;20106;-77
2023/09/25 02:17:27;;;;;;;5.88;4.20;;;;;;;11.23;100.00;101527.13;4977218;28;20054;-79
2023/09/25 02:19:54;;;;;;;6.80;4.40;;;;;;;11.16;100.00;101531.25;4977535;28;20098;-79
2023/09/25 02:22:20;;;;;;;5.80;4.38;;;;;;;11.11;100.00;101528.22;4984740;28;20154;-79
2023/09/25 02:24:47;;;;;;;5.15;4.28;;;;;;;10.95;100.00;101519.09;4988189;28;20082;-81
2023/09/25 02:27:14;;;;;;;6.13;4.18;;;;;;;10.94;100.00;101516.63;4987360;28;20049;-82
2023/09/25 02:29:40;;;;;;;6.18;4.30;;;;;;;10.94;100.00;101527.91;4989386;28;20074;-80
2023/09/25 02:32:08;;;;;;;9.50;5.68;;;;;;;10.93;100.00;101521.03;4987180;28;20051;-81
2023/09/25 02:34:35;;;;;;;5.72;4.60;;;;;;;10.91;100.00;101517.72;4982371;28;20078;-78
2023/09/25 02:37:01;;;;;;;6.60;4.40;;;;;;;10.91;100.00;101522.94;4981268;28;20137;-81
2023/09/25 02:39:28;;;;;;;7.70;4.78;;;;;;;10.89;100.00;101529.28;4983055;28;20090;-81
2023/09/25 02:41:54;;;;;;;5.63;4.43;;;;;;;10.94;100.00;101527.91;4975027;28;20051;-80
2023/09/25 02:44:21;;;;;;;5.20;4.10;;;;;;;10.90;100.00;101538.78;4976305;28;20046;-78
2023/09/25 02:46:48;;;;;;;5.63;4.00;;;;;;;10.85;100.00;101531.38;4974412;28;20086;-79
2023/09/25 02:49:15;;;;;;;6.57;4.35;;;;;;;10.81;100.00;101544.88;4977034;28;20042;-78
2023/09/25 02:51:42;;;;;;;5.88;4.45;;;;;;;10.76;100.00;101550.50;4974606;28;20432;-77
2023/09/25 02:54:09;;;;;;;7.32;4.72;;;;;;;10.71;100.00;101547.47;4975306;28;20125;-79
2023/09/25 02:56:35;;;;;;;4.93;4.28;;;;;;;10.72;100.00;101558.75;4976635;28;20142;-79
2023/09/25 02:59:02;;;;;;;5.03;4.43;;;;;;;10.70;100.00;101552.84;4977313;28;20070;-79
2023/09/25 03:01:29;;;;;;;5.43;4.28;;;;;;;10.68;100.00;101552.97;4976946;28;20050;-77
2023/09/25 03:03:55;;;;;;;7.78;4.88;;;;;;;10.59;100.00;101551.97;4977745;28;20072;-78
2023/09/25 03:06:23;;;;;;;7.68;4.80;;;;;;;10.60;100.00;101560.66;4977830;28;20129;-78
2023/09/25 03:08:50;;;;;;;10.27;4.95;;;;;;;10.70;100.00;101545.81;4978908;28;20461;-81
2023/09/25 03:11:16;;;;;;;6.10;4.60;;;;;;;10.73;100.00;101550.78;4978201;28;20047;-81
2023/09/25 03:13:43;;;;;;;7.85;4.60;;;;;;;10.72;100.00;101543.88;4977611;28;20600;-81
2023/09/25 03:16:14;;;;;;;6.53;4.55;;;;;;;10.70;100.00;101551.03;4976216;28;20055;-77
2023/09/25 03:18:43;;;;;;;5.97;4.55;;;;;;;10.66;100.00;101557.50;4979602;28;20137;-81
2023/09/25 03:21:12;;;;;;;6.20;4.80;;;;;;;10.60;100.00;101565.88;4980802;28;20046;-81
2023/09/25 03:23:41;;;;;;;7.20;4.93;;;;;;;10.66;100.00;101567.16;4980501;28;20129;-80
2023/09/25 03:26:14;;;;;;;6.53;5.15;;;;;;;10.66;100.00;101549.66;4978049;28;20462;-82
2023/09/25 03:28:41;;;;;;;9.00;4.85;;;;;;;10.63;100.00;101555.97;4977559;28;20183;-81
2023/09/25 03:31:07;;;;;;;7.60;5.00;;;;;;;10.61;100.00;101552.66;4977850;28;20097;-82
2023/09/25 03:33:34;;;;;;;6.35;4.53;;;;;;;10.60;100.00;101563.28;4977010;28;20114;-79
2023/09/25 03:36:01;;;;;;;7.22;4.60;;;;;;;10.57;100.00;101563.53;4978052;28;20129;-80
2023/09/25 03:38:27;;;;;;;7.85;5.10;;;;;;;10.54;100.00;101567.25;4978492;28;20090;-78
2023/09/25 03:40:55;;;;;;;7.20;4.70;;;;;;;10.55;100.00;101565.47;4977271;28;20137;-80
2023/09/25 03:43:22;;;;;;;6.15;4.90;;;;;;;10.51;100.00;101571.91;4976911;28;20427;-80
2023/09/25 03:45:49;;;;;;;9.02;5.18;;;;;;;10.45;100.00;101583.75;4975275;28;20117;-78
2023/09/25 03:48:17;;;;;;;6.80;4.78;;;;;;;10.39;100.00;101567.75;4974227;28;20500;-81
2023/09/25 03:50:44;;;;;;;6.47;4.63;;;;;;;10.39;100.00;101573.00;4979768;28;20066;-81
2023/09/25 03:53:11;;;;;;;7.32;4.78;;;;;;;10.37;100.00;101582.75;4979050;28;20150;-81
2023/09/25 03:55:38;;;;;;;7.13;4.55;;;;;;;10.36;100.00;101588.97;4977064;28;20058;-79
2023/09/25 03:58:06;;;;;;;7.95;4.70;;;;;;;10.33;100.00;101586.59;4978204;28;20476;-81
2023/09/25 04:00:33;;;;;;;8.20;4.88;;;;;;;10.28;100.00;101593.06;4980166;28;20133;-80
2023/09/25 04:02:59;;;;;;;5.38;4.30;;;;;;;10.20;100.00;101587.63;4977177;28;20129;-80
2023/09/25 04:05:26;;;;;;;6.80;5.25;;;;;;;10.14;100.00;101595.97;4977272;28;20133;-79
2023/09/25 04:07:53;;;;;;;5.35;4.70;;;;;;;10.14;100.00;101601.19;4976741;28;20105;-77
2023/09/25 04:10:19;;;;;;;6.00;5.05;;;;;;;10.06;100.00;101598.41;4978065;28;20042;-80
2023/09/25 04:12:46;;;;;;;6.20;4.60;;;;;;;9.99;100.00;101586.78;4984672;28;20078;-79
2023/09/25 04:15:15;;;;;;;9.23;4.88;;;;;;;10.00;100.00;101593.69;4986625;28;20163;-81
2023/09/25 04:17:42;;;;;;;7.22;5.30;;;;;;;9.96;100.00;101595.72;4987240;28;20046;-80
2023/09/25 04:20:16;;;;;;;7.57;5.32;;;;;;;9.97;100.00;101594.75;4987702;28;20154;-81
2023/09/25 04:22:42;;;;;;;11.07;5.55;;;;;;;9.97;100.00;101589.53;4985402;28;20077;-81
2023/09/25 04:25:18;;;;;;;6.28;5.20;;;;;;;10.02;100.00;101590.94;4985439;28;20138;-81
2023/09/25 04:27:45;;;;;;;8.43;5.35;;;;;;;10.03;100.00;101601.25;4982564;28;20073;-81
2023/09/25 04:30:14;;;;;;;8.45;5.57;;;;;;;10.04;100.00;101592.47;4982242;28;20050;-80
2023/09/25 04:32:42;;;;;;;7.82;5.40;;;;;;;10.09;100.00;101595.53;4982463;28;20054;-81
2023/09/25 04:35:10;;;;;;;6.63;5.40;;;;;;;10.09;100.00;101595.53;4982779;28;20085;-81
2023/09/25 04:37:38;;;;;;;6.38;5.40;;;;;;;10.09;100.00;101595.53;4983705;28;20122;-80
2023/09/25 04:40:14;;;;;;;7.18;5.40;;;;;;;10.09;100.00;101605.16;4976183;28;20121;-79
2023/09/25 04:42:41;;;;;;;9.07;5.20;;;;;;;10.06;100.00;101603.63;4981810;28;20468;-80
2023/09/25 04:45:12;;;;;;;6.28;5.28;;;;;;;10.13;100.00;101603.94;4982328;28;20053;-79
2023/09/25 04:47:42;;;;;;;7.13;5.47;;;;;;;10.09;100.00;101599.94;4978993;28;20046;-79
2023/09/25 04:50:12;;;;;;;8.55;5.70;;;;;;;10.06;100.00;101608.84;4979357;28;20059;-81
2023/09/25 04:52:40;;;;;;;7.05;5.70;;;;;;;10.05;100.00;101599.34;4979431;28;20493;-79
2023/09/25 04:55:10;;;;;;;6.90;5.38;;;;;;;10.12;100.00;101605.72;4982497;28;20050;-79
2023/09/25 04:57:38;;;;;;;8.10;5.75;;;;;;;10.08;100.00;101601.72;4983279;28;20055;-81
2023/09/25 05:00:12;;;;;;;6.78;5.88;;;;;;;9.96;100.00;101587.88;4982247;28;20109;-79
2023/09/25 05:02:43;;;;;;;10.65;5.68;;;;;;;10.04;100.00;101589.84;4982863;28;20065;-80
2023/09/25 05:05:10;;;;;;;7.03;5.68;;;;;;;9.94;100.00;101592.41;4983224;28;20051;-80
2023/09/25 05:07:37;;;;;;;6.75;5.50;;;;;;;9.98;100.00;101596.41;4983914;28;20086;-80
2023/09/25 05:10:08;;;;;;;7.20;5.80;;;;;;;9.96;100.00;101594.88;4985237;28;20148;-81
2023/09/25 05:12:34;;;;;;;8.25;5.32;;;;;;;9.96;100.00;101597.50;4984786;28;20051;-79
2023/09/25 05:15:01;;;;;;;9.40;5.55;;;;;;;10.04;100.00;101597.69;4984576;28;20078;-80
2023/09/25 05:17:28;;;;;;;5.65;5.05;;;;;;;9.93;100.00;101582.91;4986553;28;20086;-80
2023/09/25 05:19:58;;;;;;;7.57;5.60;;;;;;;9.90;100.00;101598.03;4991960;28;20050;-81
2023/09/25 05:22:25;;;;;;;6.70;5.45;;;;;;;9.79;100.00;101578.03;4990514;28;20093;-80
2023/09/25 05:24:52;;;;;;;8.95;5.57;;;;;;;9.75;100.00;101578.41;4986843;28;20494;-81
2023/09/25 05:27:18;;;;;;;9.23;5.60;;;;;;;9.81;100.00;101580.50;4981739;28;20089;-81
2023/09/25 05:29:46;;;;;;;7.63;5.40;;;;;;;9.93;100.00;101585.50;4985312;28;20054;-81
2023/09/25 05:32:14;;;;;;;7.32;5.78;;;;;;;9.95;100.00;101591.44;4985349;28;20086;-79
2023/09/25 05:34:41;;;;;;;8.48;5.60;;;;;;;9.96;100.00;101592.28;4990650;28;20058;-81
2023/09/25 05:37:11;;;;;;;6.68;5.60;;;;;;;10.04;100.00;101605.53;4994247;28;20090;-81
2023/09/25 05:39:38;;;;;;;7.82;5.47;;;;;;;10.09;100.00;101605.16;4996126;28;20039;-81
2023/09/25 05:42:05;;;;;;;7.70;5.22;;;;;;;10.11;100.00;101609.31;4995971;28;20031;-81
2023/09/25 05:44:35;;;;;;;9.73;5.70;;;;;;;10.18;100.00;101602.59;4993713;28;20059;-82
2023/09/25 05:47:02;;;;;;;7.85;5.35;;;;;;;10.29;100.00;101592.09;4995823;28;20046;-83
2023/09/25 05:49:28;;;;;;;6.35;5.15;;;;;;;10.36;100.00;101594.19;4997294;28;20042;-84
2023/09/25 05:51:57;;;;;;;8.88;5.40;;;;;;;10.40;100.00;101595.59;4996972;28;20043;-83
2023/09/25 05:54:25;;;;;;;9.43;5.32;;;;;;;10.55;100.00;101594.25;4990707;28;20061;-82
2023/09/25 05:56:53;;;;;;;7.90;5.47;;;;;;;10.57;100.00;101597.56;4988312;28;20101;-82
2023/09/25 05:59:42;;;;;;;7.18;5.07;;;;;;;10.50;100.00;101583.34;4989106;28;20053;-83
2023/09/25 06:02:09;;;;;;;10.70;5.63;;;;;;;10.51;100.00;101562.28;4982410;28;20424;-85
2023/09/25 06:04:39;;;;;;;7.20;4.97;;;;;;;10.66;100.00;101569.78;4986685;28;20054;-82
2023/09/25 06:07:09;;;;;;;6.45;5.07;;;;;;;10.91;100.00;101590.22;4986811;28;20053;-84
2023/09/25 06:09:46;;;;;;;6.55;4.70;;;;;;;10.98;100.00;101573.81;4987578;28;20050;-83
2023/09/25 06:12:15;;;;;;;6.55;4.78;;;;;;;11.01;100.00;101553.56;4988054;28;20266;-83
2023/09/25 06:14:47;;;;;;;6.88;5.32;;;;;;;11.17;100.00;101556.47;4987508;28;20086;-83
2023/09/25 06:17:16;;;;;;;6.47;4.65;;;;;;;11.50;100.00;101579.63;4988082;28;20050;-84
2023/09/25 06:19:46;;;;;;;6.57;5.30;;;;;;;11.70;100.00;101564.72;4988489;28;20109;-82
2023/09/25 06:22:13;;;;;;;6.18;4.80;;;;;;;12.00;100.00;101570.75;4991139;28;20047;-83
2023/09/25 06:24:41;;;;;;;5.72;4.28;;;;;;;12.11;100.00;101552.22;4989911;28;20053;-82
2023/09/25 06:27:10;;;;;;;6.63;5.30;;;;;;;12.53;98.42;101545.53;4987025;28;20054;-83
2023/09/25 06:29:37;;;;;;;6.18;4.05;;;;;;;13.13;95.62;101532.69;4987785;28;20134;-83
2023/09/25 06:32:07;;;;;;;6.10;4.00;;;;;;;13.59;92.86;101531.63;4988548;28;20047;-82
2023/09/25 06:34:39;;;;;;;9.50;4.28;;;;;;;14.11;90.55;101550.03;4989854;28;20046;-81
2023/09/25 06:37:10;;;;;;;5.73;3.97;;;;;;;14.36;87.91;101513.25;4987078;28;20054;-84
2023/09/25 06:39:42;;;;;;;5.43;3.70;;;;;;;14.72;86.24;101512.06;4984452;28;20317;-83
2023/09/25 06:42:12;;;;;;;4.07;3.65;;;;;;;14.97;85.06;101530.56;4985178;28;20125;-83
2023/09/25 06:44:44;;;;;;;7.85;3.70;;;;;;;15.16;83.79;101495.97;4986978;28;20074;-83
2023/09/25 06:47:19;;;;;;;5.47;3.88;;;;;;;15.85;82.16;101499.88;4994438;28;20050;-83
2023/09/25 06:49:49;;;;;;;6.30;3.70;;;;;;;15.70;81.27;101504.19;4992950;28;20043;-83
2023/09/25 06:52:19;;;;;;;6.45;3.60;;;;;;;15.39;82.17;101527.78;4993190;28;20043;-83
2023/09/25 06:54:59;;;;;;;;;;;;;;;;;;;;;
2023/09/25 06:57:26;;;;;;;6.65;3.60;;;;;;;15.20;82.84;101528.94;4992503;28;20078;-83
2023/09/25 07:00:01;;;;;;;3.72;3.30;;;;;;;15.30;82.73;101526.97;4986934;28;20059;-83
2023/09/25 07:02:28;;;;;;;8.02;4.00;;;;;;;15.27;82.95;101533.38;4987555;28;20058;-83
2023/09/25 07:04:58;;;;;;;4.82;3.60;;;;;;;15.58;82.33;101536.22;4986330;28;20117;-83
2023/09/25 07:07:27;;;;;;;6.88;3.80;;;;;;;16.14;80.85;101515.94;4987963;28;20134;-83
2023/09/25 07:09:58;;;;;;;4.80;3.63;;;;;;;15.88;80.44;101515.38;4981588;28;20051;-84
2023/09/25 07:12:26;;;;;;;5.45;3.38;;;;;;;16.37;79.69;101526.59;4988468;28;20169;-83
2023/09/25 07:14:56;;;;;;;6.95;3.70;;;;;;;16.07;79.20;101520.25;4985524;28;20224;-83
2023/09/25 07:17:22;;;;;;;5.93;3.33;;;;;;;16.12;79.49;101506.53;4989810;28;20050;-84
2023/09/25 07:19:59;;;;;;;5.47;3.80;;;;;;;16.01;79.82;101528.06;4988597;28;20054;-83
2023/09/25 07:22:35;;;;;;;4.60;3.95;;;;;;;15.52;80.65;101542.13;4987745;28;20054;-82
2023/09/25 07:25:05;;;;;;;4.70;3.63;;;;;;;15.49;80.92;101537.19;4981116;28;20058;-84
2023/09/25 07:27:33;;;;;;;4.80;3.60;;;;;;;15.13;81.53;101528.75;4990027;28;20058;-83
2023/09/25 07:30:05;;;;;;;7.03;3.80;;;;;;;14.97;81.70;101527.94;4982059;28;20047;-84
2023/09/25 07:32:33;;;;;;;5.97;3.85;;;;;;;15.22;81.59;101530.41;4989194;28;20126;-82
2023/09/25 07:35:04;;;;;;;8.18;4.13;;;;;;;15.51;81.78;101550.22;4988191;28;20047;-82
2023/09/25 07:37:42;;;;;;;7.70;3.85;;;;;;;15.80;80.24;101531.22;4984848;28;20051;-83
2023/09/25 07:40:19;;;;;;;6.28;3.78;;;;;;;15.95;79.95;101528.72;4984689;28;20106;-81
2023/09/25 07:42:46;;;;;;;10.50;3.83;;;;;;;16.24;79.17;101518.38;4983399;28;20054;-83
2023/09/25 07:45:22;;;;;;;6.95;3.85;;;;;;;16.12;77.91;101499.44;4982637;28;20050;-82
2023/09/25 07:47:54;;;;;;;6.88;3.50;;;;;;;16.39;76.72;101492.06;4997921;28;20036;-84
2023/09/25 07:50:27;;;;;;;5.65;3.75;;;;;;;15.89;77.31;101496.72;4995934;28;20061;-83
2023/09/25 07:52:58;;;;;;;7.32;3.85;;;;;;;15.99;78.70;101530.84;4991784;28;20046;-83
2023/09/25 07:55:26;;;;;;;4.88;3.63;;;;;;;16.01;78.63;101528.88;4982677;28;20161;-83
2023/09/25 07:57:54;;;;;;;7.93;3.70;;;;;;;15.96;77.95;101512.72;4974862;28;20157;-82
2023/09/25 08:00:23;;;;;;;6.82;3.72;;;;;;;15.92;78.36;101527.25;4979477;28;20086;-81
2023/09/25 08:02:51;;;;;;;7.20;3.60;;;;;;;16.09;78.45;101534.09;4980682;28;20109;-80
2023/09/25 08:05:19;;;;;;;4.80;3.40;;;;;;;15.94;78.57;101530.53;4974746;28;20050;-82
2023/09/25 08:07:46;;;;;;;6.20;3.47;;;;;;;15.88;78.48;101529.41;4971325;28;20118;-81
2023/09/25 08:10:13;;;;;;;6.50;3.92;;;;;;;16.01;78.65;101530.69;4972622;28;20074;-82
2023/09/25 08:12:41;;;;;;;8.73;3.70;;;;;;;16.12;78.36;101531.13;4980240;28;20462;-82
2023/09/25 08:15:10;;;;;;;5.53;3.22;;;;;;;16.50;77.48;101526.03;4977683;28;20138;-81
2023/09/25 08:17:36;;;;;;;5.50;3.45;;;;;;;16.50;77.04;101526.84;4971279;28;20055;-82
2023/09/25 08:20:13;;;;;;;4.97;3.58;;;;;;;16.77;77.19;101536.13;4970406;28;20139;-83
2023/09/25 08:22:40;;;;;;;6.28;3.72;;;;;;;16.85;76.46;101524.69;4973902;28;20062;-83
2023/09/25 08:25:08;;;;;;;6.22;4.10;;;;;;;17.09;75.66;101528.97;4971386;28;20157;-82
2023/09/25 08:27:35;;;;;;;7.05;3.70;;;;;;;16.54;76.68;101519.41;4966475;28;20058;-80
2023/09/25 08:30:03;;;;;;;5.05;3.65;;;;;;;16.57;76.44;101522.50;4969906;28;20050;-81
2023/09/25 08:32:31;;;;;;;5.97;4.07;;;;;;;16.62;76.54;101515.88;4980197;28;20517;-82
2023/09/25 08:34:57;;;;;;;6.05;3.60;;;;;;;16.79;76.55;101528.84;4977778;28;20576;-82
2023/09/25 08:37:25;;;;;;;7.72;3.92;;;;;;;16.67;76.23;101511.75;4973091;28;20505;-81
2023/09/25 08:39:52;;;;;;;6.10;3.60;;;;;;;16.79;76.18;101526.22;4975547;28;20046;-82
2023/09/25 08:42:21;;;;;;;6.50;3.72;;;;;;;16.78;75.72;101503.44;4973801;28;20066;-82
2023/09/25 08:44:50;;;;;;;6.82;3.80;;;;;;;16.75;76.04;101517.00;4977781;28;20070;-82
2023/09/25 08:47:19;;;;;;;7.40;3.90;;;;;;;17.00;75.70;101507.09;4972918;28;20116;-81
2023/09/25 08:49:49;;;;;;;6.78;3.55;;;;;;;17.17;75.34;101502.47;4976723;28;20055;-82
2023/09/25 08:52:16;;;;;;;7.05;3.72;;;;;;;17.63;74.53;101502.38;4980100;28;20081;-82
2023/09/25 08:54:43;;;;;;;5.00;3.47;;;;;;;17.57;74.68;101507.38;4977392;28;20047;-81
2023/09/25 08:57:10;;;;;;;4.90;3.50;;;;;;;17.52;73.72;101507.09;4991390;28;20085;-81
2023/09/25 08:59:40;;;;;;;7.18;3.40;;;;;;;17.57;73.24;101496.81;4989953;28;20047;-81
2023/09/25 09:02:10;;;;;;;5.82;3.80;;;;;;;17.65;72.17;101485.34;4987981;28;20058;-81
2023/09/25 09:04:38;;;;;;;6.55;3.78;;;;;;;17.61;72.18;101485.84;4979365;28;20078;-81
2023/09/25 09:09:52;;;;;;;4.88;3.10;;;;;;;17.35;72.63;101478.34;4996647;28;20114;-80
2023/09/25 09:12:28;;;;;;;6.20;3.60;;;;;;;17.82;72.70;101494.78;4996123;28;20038;-80
2023/09/25 09:15:04;;;;;;;7.10;3.72;;;;;;;17.64;72.83;101491.63;4994308;28;20058;-80
2023/09/25 09:17:31;;;;;;;5.30;3.85;;;;;;;17.81;72.44;101484.34;4985882;28;20050;-80
2023/09/25 09:20:06;;;;;;;4.68;3.53;;;;;;;17.84;71.74;101487.47;5016672;23;20077;-79
2023/09/25 09:23:02;;;;;;;5.00;3.35;;;;;;;18.00;71.31;101485.63;4992366;28;20133;-82
2023/09/25 09:25:33;;;;;;;5.57;3.25;;;;;;;17.88;71.75;101495.88;4998000;28;20066;-82
2023/09/25 09:28:08;;;;;;;7.03;3.88;;;;;;;17.84;71.75;101478.69;4999391;28;20500;-83
2023/09/25 09:31:05;;;;;;;6.72;3.65;;;;;;;17.89;70.87;101477.16;4995513;28;20129;-82
2023/09/25 09:33:38;;;;;;;6.50;3.33;;;;;;;18.20;70.26;101460.22;4982640;28;20062;-81
2023/09/25 09:36:09;;;;;;;8.70;3.67;;;;;;;18.46;70.63;101467.63;4980994;28;20055;-83
2023/09/25 09:38:41;;;;;;;9.02;3.85;;;;;;;18.61;70.77;101473.75;4982404;28;20051;-83
2023/09/25 09:41:22;;;;;;;;;;;;;;;18.35;70.16;101468.13;4979263;28;20054;-84
2023/09/25 09:43:51;;;;;;;7.10;3.75;;;;;;;18.23;69.59;101457.19;4977602;28;20315;-83
2023/09/25 09:46:32;;;;;;;8.98;3.75;;;;;;;18.51;69.87;101475.84;4980454;28;20046;-82
2023/09/25 09:49:09;;;;;;;4.47;3.30;;;;;;;18.40;69.54;101469.22;4978249;28;20151;-86
2023/09/25 09:51:45;;;;;;;6.47;3.78;;;;;;;18.43;68.60;101457.44;4980666;28;20055;-83
2023/09/25 09:54:17;;;;;;;6.53;3.63;;;;;;;18.78;68.07;101450.47;4984157;28;20137;-84
2023/09/25 09:56:52;;;;;;;4.97;3.47;;;;;;;18.69;67.82;101455.06;4977502;28;20046;-84
2023/09/25 09:59:21;;;;;;;7.95;3.63;;;;;;;18.82;67.03;101467.63;4979896;28;20062;-83
2023/09/25 10:02:02;;;;;;;8.90;3.50;;;;;;;18.69;67.06;101447.09;4978546;28;20081;-84
2023/09/25 10:04:36;;;;;;;5.75;3.72;;;;;;;19.03;67.27;101458.81;4979249;28;20055;-84
2023/09/25 10:07:29;;;;;;;5.65;3.45;;;;;;;19.17;65.90;101440.19;4974428;28;20082;-84
2023/09/25 10:10:00;;;;;;;6.20;3.70;;;;;;;19.29;65.70;101432.50;4978532;28;20539;-83
2023/09/25 10:12:50;;;;;;;4.25;3.22;;;;;;;19.31;66.13;101443.75;4979777;28;20050;-86
2023/09/25 10:35:13;;;;;;;6.68;3.60;;;;;;;19.72;64.03;101421.75;5328535;23;20050;-84
2023/09/25 10:38:11;;;;;;;4.13;3.40;;;;;;;19.85;63.37;101404.03;4978227;28;20047;-86
2023/09/25 10:40:52;;;;;;;5.45;3.30;;;;;;;20.17;63.14;101425.63;4974746;28;20086;-85
2023/09/25 10:43:22;;;;;;;4.75;3.45;;;;;;;20.33;63.07;101427.06;4957826;28;20047;-84
2023/09/25 10:45:57;;;;;;;4.82;3.30;;;;;;;20.24;61.53;101399.06;4962289;28;20102;-86
2023/09/25 10:48:42;;;;;;;4.80;3.38;;;;;;;20.21;61.16;101395.78;4991713;23;20102;-82
2023/09/25 10:52:10;;;;;;;;;;;;;;;;;;;;;
2023/09/25 10:54:43;;;;;;;5.78;3.25;;;;;;;21.00;60.46;101381.75;4974162;28;20130;-82
2023/09/25 10:58:00;;;;;;;7.55;3.63;;;;;;;21.00;60.24;101370.28;4978296;28;20106;-81
2023/09/25 11:01:16;;;;;;;7.13;3.33;;;;;;;20.70;59.47;101359.28;4958664;28;20568;-81
2023/09/25 11:04:07;;;;;;;5.70;3.40;;;;;;;20.63;60.08;101375.22;4958456;28;20051;-82
2023/09/25 11:10:24;;;;;;;7.22;3.85;;;;;;;20.69;60.01;101361.13;4945636;28;20051;-82
2023/09/25 11:13:19;;;;;;;7.53;3.53;;;;;;;21.11;58.89;101367.81;4962847;28;20430;-82
2023/09/25 11:19:31;;;;;;;5.57;3.33;;;;;;;20.68;59.81;101369.31;4948378;28;20115;-82
2023/09/25 11:22:27;;;;;;;5.97;3.80;;;;;;;21.11;58.95;101375.81;4955439;28;20474;-82
2023/09/25 11:25:04;;;;;;;3.50;2.85;;;;;;;20.87;58.24;101357.81;4960038;28;20071;-82
2023/09/25 11:28:18;;;;;;;4.85;3.10;;;;;;;21.32;59.45;101390.72;4955367;28;20066;-82
2023/09/25 11:31:11;;;;;;;5.55;3.00;;;;;;;21.46;57.18;101373.72;4960767;28;20059;-82
2023/09/25 11:33:55;;;;;;;;;;;;;;;21.10;58.37;101381.34;4949544;28;20093;-82
2023/09/25 11:36:27;;;;;;;4.30;3.20;;;;;;;21.26;57.75;101367.63;4961389;28;19969;-82
2023/09/25 11:42:47;;;;;;;4.35;2.67;;;;;;;21.76;57.28;101351.88;4956264;28;20066;-82
2023/09/25 11:48:09;;;;;;;5.18;3.00;;;;;;;21.99;57.34;101378.81;4954641;28;20146;-82
2023/09/25 11:50:39;;;;;;;4.70;3.55;;;;;;;21.91;57.91;101371.06;4961250;28;20062;-83
2023/09/25 11:56:38;;;;;;;6.82;3.10;;;;;;;21.60;56.91;101349.69;4956441;28;20053;-83
2023/09/25 11:59:21;;;;;;;5.72;3.42;;;;;;;21.34;56.35;101348.75;4956313;28;20114;-82
2023/09/25 12:02:18;;;;;;;7.47;3.50;;;;;;;21.99;57.41;101375.34;4956950;28;20055;-82
2023/09/25 12:08:17;;;;;;;;;;;;;;;;;;;;;
2023/09/25 12:11:39;;;;;;;;;;;;;;;;;;;;;
2023/09/25 12:17:39;;;;;;;4.50;3.00;;;;;;;21.88;56.98;101371.47;4957898;28;20247;-82
2023/09/25 12:20:24;;;;;;;6.97;3.00;;;;;;;21.53;55.54;101341.72;4965042;28;20106;-81
2023/09/25 12:36:31;;;;;;;7.70;3.53;;;;;;;21.66;56.66;101354.19;4866522;29;20057;-82
2023/09/25 12:42:32;;;;;;;5.75;3.55;;;;;;;21.64;55.17;101332.28;4895333;29;20100;-82
2023/09/25 12:46:08;;;;;;;3.40;3.08;;;;;;;21.77;55.38;101337.50;4916817;29;20041;-82
2023/09/25 12:48:47;;;;;;;5.03;3.35;;;;;;;21.69;56.31;101346.59;4808435;29;20054;-83
2023/09/25 13:07:24;;;;;;;3.95;3.08;;;;;;;22.08;54.16;101286.97;4867843;29;20079;-83
2023/09/25 13:10:15;;;;;;;8.23;3.25;;;;;;;21.87;54.58;101303.25;4939064;29;20051;-80
2023/09/25 13:13:27;;;;;;;5.10;3.00;;;;;;;22.01;54.07;101301.31;4935297;29;20059;-82
2023/09/25 13:19:45;;;;;;;;;;;;;;;;;;;;;